Time;durP1;ratioP1;P1;durP2;ratioP2;P2;SDS_P1;SDS_P2;PMS_P1;PMS_P2;Temp;Humidity;BMP_temperature;BMP_pressure;BME280_temperature;BME280_humidity;BME280_pressure;Samples;Min_cycle;Max_cycle;Signal;HPM_P1;HPM_P2
2022/07/25 00:01:54;;;;;;;;;;;;;;;18.90;100.00;98010.09;5072465;28;19924;-85
2022/07/25 00:04:21;;;;;;;;;;;;;;;18.89;100.00;98013.41;5072464;28;19925;-85
2022/07/25 00:06:49;;;;;;;;;;;;;;;18.81;100.00;97998.97;5055488;28;19931;-85
2022/07/25 00:09:16;;;;;;;;;;;;;;;18.73;100.00;98005.59;5073731;28;19928;-85
2022/07/25 00:11:43;;;;;;;;;;;;;;;18.85;100.00;97996.69;5089270;28;19978;-85
2022/07/25 00:14:11;;;;;;;;;;;;;;;18.46;100.00;97997.69;5039116;28;19990;-85
2022/07/25 00:16:38;;;;;;;;;;;;;;;18.33;100.00;97997.25;5072211;28;20019;-85
2022/07/25 00:19:05;;;;;;;;;;;;;;;18.58;100.00;97999.31;5039191;28;19935;-85
2022/07/25 00:21:33;;;;;;;;;;;;;;;18.48;100.00;98003.63;5075727;28;19928;-85
2022/07/25 00:24:00;;;;;;;;;;;;;;;18.55;100.00;98012.41;5075925;28;20019;-85
2022/07/25 00:26:27;;;;;;;;;;;;;;;18.55;100.00;98005.97;5092576;28;19929;-85
2022/07/25 00:28:54;;;;;;;;;;;;;;;18.62;100.00;98000.63;5059146;28;19931;-85
2022/07/25 00:31:21;;;;;;;;;;;;;;;18.84;100.00;98006.44;5075947;28;20062;-86
2022/07/25 00:33:48;;;;;;;;;;;;;;;18.94;100.00;98009.84;5075465;28;19946;-85
2022/07/25 00:36:15;;;;;;;;;;;;;;;18.92;100.00;98004.69;5076773;28;19943;-85
2022/07/25 00:38:43;;;;;;;;;;;;;;;18.74;100.00;97999.44;5075481;28;19925;-86
2022/07/25 00:41:10;;;;;;;;;;;;;;;19.12;100.00;98001.75;5058725;28;19978;-85
2022/07/25 00:43:41;;;;;;;;;;;;;;;18.84;100.00;97994.38;5075597;28;20306;-86
2022/07/25 00:46:10;;;;;;;;;;;;;;;18.93;100.00;97999.81;5109278;28;19925;-85
2022/07/25 00:48:38;;;;;;;;;;;;;;;18.81;100.00;97995.38;5058679;28;19925;-85
2022/07/25 00:51:06;;;;;;;;;;;;;;;18.77;100.00;97998.44;5074967;28;20636;-85
2022/07/25 00:53:34;;;;;;;;;;;;;;;18.86;100.00;97989.75;5058619;28;19951;-85
2022/07/25 00:56:01;;;;;;;;;;;;;;;18.82;100.00;97986.38;5058245;28;19925;-85
2022/07/25 00:58:28;;;;;;;;;;;;;;;18.61;100.00;97970.81;5075205;28;20306;-86
2022/07/25 01:00:55;;;;;;;;;;;;;;;18.56;100.00;97965.09;5076389;28;19967;-86
2022/07/25 01:03:22;;;;;;;;;;;;;;;18.70;100.00;97953.63;5074926;28;19924;-85
2022/07/25 01:05:50;;;;;;;;;;;;;;;18.56;100.00;97962.25;5075146;28;20406;-86
2022/07/25 01:08:19;;;;;;;;;;;;;;;18.55;100.00;97961.50;5075129;28;19925;-85
2022/07/25 01:10:48;;;;;;;;;;;;;;;18.80;100.00;97957.81;5058411;28;20011;-86
2022/07/25 01:13:15;;;;;;;;;;;;;;;18.54;100.00;97959.19;5041667;28;19924;-86
2022/07/25 01:15:42;;;;;;;;;;;;;;;18.56;100.00;97957.38;5058221;28;20015;-86
2022/07/25 01:18:09;;;;;;;;;;;;;;;18.58;100.00;97960.50;5074950;28;20405;-85
2022/07/25 01:20:36;;;;;;;;;;;;;;;18.65;100.00;97964.91;5057954;28;20032;-86
2022/07/25 01:23:09;;;;;;;;;;;;;;;18.81;100.00;97970.66;5073976;28;19925;-86
2022/07/25 01:25:36;;;;;;;;;;;;;;;18.74;100.00;97968.31;5073728;28;19932;-86
2022/07/25 01:28:04;;;;;;;;;;;;;;;18.82;100.00;97975.06;5023687;28;20295;-86
2022/07/25 01:30:31;;;;;;;;;;;;;;;18.91;100.00;97968.41;5074338;28;19932;-86
2022/07/25 01:32:58;;;;;;;;;;;;;;;18.83;100.00;97965.28;5041131;28;19928;-86
2022/07/25 01:35:25;;;;;;;;;;;;;;;18.77;100.00;97966.53;5057875;28;19928;-85
2022/07/25 01:37:53;;;;;;;;;;;;;;;18.86;100.00;97974.81;5058237;28;19924;-85
2022/07/25 01:40:21;;;;;;;;;;;;;;;18.98;100.00;97971.53;5074486;28;19924;-85
2022/07/25 01:42:48;;;;;;;;;;;;;;;18.84;100.00;97963.25;5074422;28;19924;-86
2022/07/25 01:45:15;;;;;;;;;;;;;;;18.99;100.00;97970.25;5057523;28;20175;-86
2022/07/25 01:47:42;;;;;;;;;;;;;;;18.98;100.00;97977.22;5108035;28;19962;-85
2022/07/25 01:50:09;;;;;;;;;;;;;;;18.79;100.00;97976.06;5057712;28;19929;-85
2022/07/25 01:52:38;;;;;;;;;;;;;;;18.69;100.00;97973.94;5058000;28;19990;-86
2022/07/25 01:55:05;;;;;;;;;;;;;;;18.62;100.00;97972.34;5075066;28;19924;-87
2022/07/25 01:57:33;;;;;;;;;;;;;;;18.66;100.00;97958.72;5074554;28;20017;-84
2022/07/25 02:00:00;;;;;;;;;;;;;;;18.80;100.00;97960.63;5057263;28;19931;-84
2022/07/25 02:02:38;;;;;;;;;;;;;;;18.93;100.00;97951.72;5073915;28;19964;-85
2022/07/25 02:05:06;;;;;;;;;;;;;;;18.59;100.00;97944.28;5073918;28;19928;-86
2022/07/25 02:07:34;;;;;;;;;;;;;;;18.34;100.00;97948.72;5074076;28;19971;-85
2022/07/25 02:10:01;;;;;;;;;;;;;;;18.60;100.00;97952.25;5057360;28;19962;-85
2022/07/25 02:12:28;;;;;;;;;;;;;;;18.84;100.00;97949.09;5057442;28;19932;-86
2022/07/25 02:14:55;;;;;;;;;;;;;;;18.66;100.00;97949.50;5057171;28;19978;-85
2022/07/25 02:17:22;;;;;;;;;;;;;;;18.59;100.00;97956.38;5073803;28;19924;-86
2022/07/25 02:19:49;;;;;;;;;;;;;;;18.60;100.00;97955.09;5073704;28;19993;-86
2022/07/25 02:22:17;;;;;;;;;;;;;;;18.53;100.00;97952.75;5040451;28;20383;-86
2022/07/25 02:24:44;;;;;;;;;;;;;;;18.68;100.00;97953.34;5073545;28;19924;-86
2022/07/25 02:27:11;;;;;;;;;;;;;;;18.66;100.00;97953.06;5073777;28;20390;-86
2022/07/25 02:29:38;;;;;;;;;;;;;;;18.67;100.00;97946.16;5073413;28;19964;-86
2022/07/25 02:32:05;;;;;;;;;;;;;;;18.62;100.00;97944.06;5073551;28;19931;-86
2022/07/25 02:34:32;;;;;;;;;;;;;;;18.81;100.00;97945.19;5073409;28;20019;-85
2022/07/25 02:36:59;;;;;;;;;;;;;;;18.73;100.00;97938.47;5073403;28;20299;-86
2022/07/25 02:39:26;;;;;;;;;;;;;;;18.96;100.00;97933.72;5090303;28;19993;-86
2022/07/25 02:41:53;;;;;;;;;;;;;;;18.85;100.00;97934.44;5056739;28;19932;-85
2022/07/25 02:44:20;;;;;;;;;;;;;;;18.63;100.00;97939.94;5072165;28;20381;-86
2022/07/25 02:46:47;;;;;;;;;;;;;;;18.76;100.00;97948.78;5073199;28;19990;-85
2022/07/25 02:49:15;;;;;;;;;;;;;;;18.43;100.00;97954.22;5074350;28;19924;-86
2022/07/25 02:51:42;;;;;;;;;;;;;;;18.59;100.00;97955.59;5090216;28;19925;-86
2022/07/25 02:54:09;;;;;;;;;;;;;;;18.58;100.00;97937.88;5106825;28;19954;-86
2022/07/25 02:56:36;;;;;;;;;;;;;;;18.61;100.00;97936.84;5073032;28;20016;-86
2022/07/25 02:59:04;;;;;;;;;;;;;;;18.43;100.00;97940.06;5056401;28;19931;-87
2022/07/25 03:01:32;;;;;;;;;;;;;;;18.42;100.00;97935.69;5056538;28;19928;-86
2022/07/25 03:04:03;;;;;;;;;;;;;;;18.37;100.00;97939.25;5074276;28;20363;-86
2022/07/25 03:06:30;;;;;;;;;;;;;;;18.44;100.00;97938.00;5056156;28;19932;-86
2022/07/25 03:08:57;;;;;;;;;;;;;;;18.34;100.00;97945.91;5056293;28;19924;-86
2022/07/25 03:11:30;;;;;;;;;;;;;;;18.40;100.00;97945.94;5074611;28;19924;-87
2022/07/25 03:13:58;;;;;;;;;;;;;;;18.54;100.00;97937.31;5056538;28;19932;-87
2022/07/25 03:16:26;;;;;;;;;;;;;;;18.65;100.00;97926.06;5089742;28;20295;-86
2022/07/25 03:18:53;;;;;;;;;;;;;;;18.55;100.00;97930.38;5056173;28;19925;-87
2022/07/25 03:21:20;;;;;;;;;;;;;;;18.66;100.00;97933.28;5072792;28;19932;-86
2022/07/25 03:23:48;;;;;;;;;;;;;;;18.49;100.00;97929.56;5072668;28;20363;-86
2022/07/25 03:26:18;;;;;;;;;;;;;;;18.59;100.00;97910.34;5055704;28;20017;-86
2022/07/25 03:28:45;;;;;;;;;;;;;;;18.31;100.00;97921.41;5073846;28;19939;-87
2022/07/25 03:31:12;;;;;;;;;;;;;;;18.31;100.00;97918.59;5072700;28;19931;-86
2022/07/25 03:33:39;;;;;;;;;;;;;;;18.22;100.00;97927.25;5074175;28;19932;-85
2022/07/25 03:36:07;;;;;;;;;;;;;;;18.37;100.00;97922.28;5089249;28;20598;-87
2022/07/25 03:38:34;;;;;;;;;;;;;;;18.46;100.00;97935.47;5056248;28;19925;-86
2022/07/25 03:41:01;;;;;;;;;;;;;;;18.28;100.00;97936.56;5072633;28;19925;-85
2022/07/25 03:43:29;;;;;;;;;;;;;;;18.47;100.00;97920.03;5072562;28;20276;-85
2022/07/25 03:45:56;;;;;;;;;;;;;;;18.38;100.00;97918.19;5073788;28;19924;-86
2022/07/25 03:48:23;;;;;;;;;;;;;;;18.14;100.00;97931.06;5055821;28;20027;-86
2022/07/25 03:50:51;;;;;;;;;;;;;;;18.18;100.00;97942.91;5039319;28;19928;-86
2022/07/25 03:53:18;;;;;;;;;;;;;;;18.25;100.00;97942.47;5072468;28;19931;-86
2022/07/25 03:55:45;;;;;;;;;;;;;;;18.29;100.00;97943.78;5075453;28;19928;-86
2022/07/25 03:58:13;;;;;;;;;;;;;;;18.32;100.00;97954.09;5076484;28;20283;-86
2022/07/25 04:00:40;;;;;;;;;;;;;;;18.49;100.00;97946.56;5076237;28;20017;-86
2022/07/25 04:03:07;;;;;;;;;;;;;;;18.53;100.00;97944.25;5059740;28;19929;-86
2022/07/25 04:05:35;;;;;;;;;;;;;;;18.75;100.00;97946.47;5043036;28;20011;-86
2022/07/25 04:08:03;;;;;;;;;;;;;;;18.83;100.00;97945.47;5059852;28;20065;-86
2022/07/25 04:10:30;;;;;;;;;;;;;;;18.56;100.00;97934.75;5076106;28;20056;-86
2022/07/25 04:13:01;;;;;;;;;;;;;;;18.57;100.00;97930.63;5076169;28;20402;-86
2022/07/25 04:15:31;;;;;;;;;;;;;;;18.66;100.00;97926.84;5076006;28;19924;-86
2022/07/25 04:17:59;;;;;;;;;;;;;;;18.54;100.00;97920.34;5076136;28;20383;-86
2022/07/25 04:20:36;;;;;;;;;;;;;;;18.39;100.00;97925.38;5076999;28;20311;-86
2022/07/25 04:23:08;;;;;;;;;;;;;;;18.28;100.00;97925.25;5075420;28;20034;-85
2022/07/25 04:25:45;;;;;;;;;;;;;;;18.36;100.00;97920.69;5093777;28;19924;-86
2022/07/25 04:28:12;;;;;;;;;;;;;;;18.46;100.00;97929.81;5076964;28;19973;-86
2022/07/25 04:30:40;;;;;;;;;;;;;;;18.68;100.00;97927.88;5059162;28;20011;-85
2022/07/25 04:33:12;;;;;;;;;;;;;;;18.57;100.00;97927.06;5075763;28;19974;-86
2022/07/25 04:35:39;;;;;;;;;;;;;;;18.87;100.00;97931.84;5058908;28;20429;-85
2022/07/25 04:38:09;;;;;;;;;;;;;;;18.59;100.00;97932.97;5059396;28;20313;-85
2022/07/25 04:40:38;;;;;;;;;;;;;;;18.69;100.00;97929.44;5058879;28;19999;-85
2022/07/25 04:43:12;;;;;;;;;;;;;;;18.76;100.00;97931.81;5077244;28;19932;-85
2022/07/25 04:45:40;;;;;;;;;;;;;;;18.78;100.00;97932.06;5075573;28;19925;-85
2022/07/25 04:48:08;;;;;;;;;;;;;;;18.69;100.00;97935.09;5058979;28;20299;-86
2022/07/25 04:50:35;;;;;;;;;;;;;;;18.43;100.00;97931.59;5058806;28;19973;-86
2022/07/25 04:53:08;;;;;;;;;;;;;;;18.63;100.00;97928.63;5075669;28;20019;-86
2022/07/25 04:55:37;;;;;;;;;;;;;;;18.61;100.00;97934.03;5075478;28;20455;-85
2022/07/25 04:58:04;;;;;;;;;;;;;;;18.49;100.00;97926.75;5075701;28;20295;-86
2022/07/25 05:00:31;;;;;;;;;;;;;;;18.50;100.00;97933.94;5075267;28;20298;-86
2022/07/25 05:03:04;;;;;;;;;;;;;;;18.31;100.00;97932.72;5059817;28;19932;-86
2022/07/25 05:05:31;;;;;;;;;;;;;;;18.33;100.00;97938.66;5074531;28;19924;-86
2022/07/25 05:08:04;;;;;;;;;;;;;;;18.19;100.00;97939.56;5058859;28;19946;-84
2022/07/25 05:10:31;;;;;;;;;;;;;;;18.52;100.00;97934.22;5109233;28;19925;-85
2022/07/25 05:13:04;;;;;;;;;;;;;;;18.67;100.00;97943.31;5076659;28;19931;-85
2022/07/25 05:15:32;;;;;;;;;;;;;;;18.63;100.00;97944.84;5075125;28;19970;-86
2022/07/25 05:18:07;;;;;;;;;;;;;;;18.72;100.00;97942.56;5059578;28;19928;-86
2022/07/25 05:20:41;;;;;;;;;;;;;;;18.81;100.00;97945.19;5043255;28;19924;-86
2022/07/25 05:23:08;;;;;;;;;;;;;;;18.72;100.00;97939.75;5058293;28;19928;-86
2022/07/25 05:25:34;;;;;;;;;;;;;;;18.87;100.00;97942.41;5075894;28;19924;-86
2022/07/25 05:28:06;;;;;;;;;;;;;;;19.04;100.00;97935.56;5074900;28;20393;-86
2022/07/25 05:30:34;;;;;;;;;;;;;;;18.80;100.00;97940.81;5074688;28;19959;-86
2022/07/25 05:33:04;;;;;;;;;;;;;;;18.71;100.00;97943.84;5058358;28;19924;-87
2022/07/25 05:35:31;;;;;;;;;;;;;;;18.74;100.00;97942.06;5075883;28;19925;-86
2022/07/25 05:38:04;;;;;;;;;;;;;;;18.67;100.00;97946.16;5074577;28;20418;-87
2022/07/25 05:40:31;;;;;;;;;;;;;;;18.71;100.00;97951.56;5075748;28;19924;-87
2022/07/25 05:42:58;;;;;;;;;;;;;;;18.73;100.00;97951.84;5057619;28;20287;-86
2022/07/25 05:45:29;;;;;;;;;;;;;;;18.82;100.00;97952.44;5058356;28;19925;-86
2022/07/25 05:48:00;;;;;;;;;;;;;;;18.62;100.00;97955.38;5075723;28;20015;-87
2022/07/25 05:50:28;;;;;;;;;;;;;;;18.47;100.00;97954.75;5074280;28;20038;-86
2022/07/25 05:52:55;;;;;;;;;;;;;;;18.50;100.00;97965.06;5057503;28;20350;-86
2022/07/25 05:55:30;;;;;;;;;;;;;;;18.45;100.00;97962.94;5075401;28;19924;-87
2022/07/25 05:57:57;;;;;;;;;;;;;;;18.51;100.00;97969.44;5074024;28;20009;-86
2022/07/25 06:00:25;;;;;;;;;;;;;;;18.47;100.00;97963.25;5074040;28;19925;-87
2022/07/25 06:02:53;;;;;;;;;;;;;;;18.13;100.00;97969.84;5057586;28;20375;-88
2022/07/25 06:05:20;;;;;;;;;;;;;;;17.99;100.00;97971.50;5057502;28;19931;-87
2022/07/25 06:07:49;;;;;;;;;;;;;;;18.16;100.00;97970.91;5073836;28;19932;-87
2022/07/25 06:10:16;;;;;;;;;;;;;;;18.29;100.00;97980.53;5057461;28;19932;-87
2022/07/25 06:12:43;;;;;;;;;;;;;;;18.27;100.00;97971.78;5075120;28;19925;-87
2022/07/25 06:15:10;;;;;;;;;;;;;;;18.28;100.00;97978.97;5090573;28;19951;-87
2022/07/25 06:17:37;;;;;;;;;;;;;;;18.32;100.00;97973.88;5057115;28;20389;-87
2022/07/25 06:20:05;;;;;;;;;;;;;;;18.16;100.00;97974.50;5075095;28;19924;-87
2022/07/25 06:22:32;;;;;;;;;;;;;;;18.34;100.00;97979.03;5040947;28;20015;-87
2022/07/25 06:25:03;;;;;;;;;;;;;;;18.25;100.00;97979.22;5056910;28;19930;-86
2022/07/25 06:27:30;;;;;;;;;;;;;;;18.25;100.00;97982.81;5056858;28;19967;-89
2022/07/25 06:29:57;;;;;;;;;;;;;;;18.21;100.00;97985.09;5073484;28;19931;-91
2022/07/25 06:32:24;;;;;;;;;;;;;;;18.17;100.00;97987.38;5057057;28;19925;-91
2022/07/25 06:34:53;;;;;;;;;;;;;;;18.04;100.00;97981.31;5057093;28;20387;-82
2022/07/25 06:37:20;;;;;;;;;;;;;;;18.02;100.00;97986.72;5057191;28;19931;-82
2022/07/25 06:39:47;;;;;;;;;;;;;;;18.26;100.00;97984.38;5075111;28;19924;-83
2022/07/25 06:42:15;;;;;;;;;;;;;;;18.36;100.00;97988.56;5074129;28;20384;-83
2022/07/25 06:44:51;;;;;;;;;;;;;;;18.42;100.00;97986.59;5057864;28;20023;-83
2022/07/25 06:47:18;;;;;;;;;;;;;;;18.48;100.00;97997.97;5074733;28;20030;-83
2022/07/25 06:49:45;;;;;;;;;;;;;;;18.48;100.00;97995.88;5056790;28;20413;-83
2022/07/25 06:52:13;;;;;;;;;;;;;;;18.37;100.00;97995.81;5073312;28;19947;-83
2022/07/25 06:54:40;;;;;;;;;;;;;;;18.35;100.00;97998.34;5074706;28;19924;-83
2022/07/25 06:57:08;;;;;;;;;;;;;;;18.50;100.00;97987.69;5040497;28;20426;-84
2022/07/25 06:59:43;;;;;;;;;;;;;;;18.35;100.00;97992.69;5073496;28;19924;-83
2022/07/25 07:02:11;;;;;;;;;;;;;;;18.31;100.00;97989.28;5073078;28;20027;-83
2022/07/25 07:04:38;;;;;;;;;;;;;;;18.04;100.00;97995.44;5056355;28;19928;-83
2022/07/25 07:07:06;;;;;;;;;;;;;;;18.00;100.00;97989.25;5074859;28;19924;-83
2022/07/25 07:09:33;;;;;;;;;;;;;;;18.15;100.00;97991.97;5073216;28;19931;-83
2022/07/25 07:12:00;;;;;;;;;;;;;;;18.31;100.00;97997.00;5073415;28;19924;-83
2022/07/25 07:14:27;;;;;;;;;;;;;;;17.99;100.00;97993.38;5074349;28;19931;-83
2022/07/25 07:16:54;;;;;;;;;;;;;;;17.86;100.00;97998.59;5106876;28;20015;-83
2022/07/25 07:19:21;;;;;;;;;;;;;;;18.28;100.00;97998.75;5072727;28;19951;-83
2022/07/25 07:21:50;;;;;;;;;;;;;;;18.23;100.00;97993.06;5073404;28;19989;-83
2022/07/25 07:24:22;;;;;;;;;;;;;;;18.60;100.00;97988.28;5074493;28;19924;-83
2022/07/25 07:26:50;;;;;;;;;;;;;;;18.68;100.00;97992.97;5089625;28;19971;-83
2022/07/25 07:29:18;;;;;;;;;;;;;;;18.49;100.00;97988.97;5072223;28;19924;-83
2022/07/25 07:31:45;;;;;;;;;;;;;;;18.27;100.00;97991.56;5073134;28;19963;-83
2022/07/25 07:34:13;;;;;;;;;;;;;;;18.47;100.00;97997.19;5072801;28;20303;-83
2022/07/25 07:36:41;;;;;;;;;;;;;;;18.60;100.00;97997.53;5073355;28;19924;-83
2022/07/25 07:39:08;;;;;;;;;;;;;;;18.13;100.00;98009.41;5073254;28;20023;-81
2022/07/25 07:41:35;;;;;;;;;;;;;;;18.40;100.00;97999.69;5073057;28;20019;-81
2022/07/25 07:44:03;;;;;;;;;;;;;;;18.48;100.00;98001.53;5073623;28;20267;-81
2022/07/25 07:46:31;;;;;;;;;;;;;;;18.38;100.00;98008.66;5073028;28;19931;-81
2022/07/25 07:48:58;;;;;;;;;;;;;;;18.48;100.00;98012.09;5072947;28;19924;-81
2022/07/25 07:51:25;;;;;;;;;;;;;;;18.64;100.00;98009.41;5074344;28;19947;-81
2022/07/25 07:56:46;;;;;;;;;;;;;;;18.13;100.00;98029.19;5074082;28;20318;-80
2022/07/25 07:59:13;;;;;;;;;;;;;;;18.11;100.00;98023.28;5074160;28;19966;-80
2022/07/25 08:01:40;;;;;;;;;;;;;;;17.93;100.00;98018.72;5072437;28;20410;-81
2022/07/25 08:04:08;;;;;;;;;;;;;;;17.81;100.00;98016.31;5072720;28;19925;-80
2022/07/25 08:06:35;;;;;;;;;;;;;;;18.06;100.00;98034.53;5073639;28;19925;-81
2022/07/25 08:09:02;;;;;;;;;;;;;;;18.14;100.00;98033.59;5074028;28;20379;-81
2022/07/25 08:11:30;;;;;;;;;;;;;;;18.39;100.00;98038.50;5073822;28;20391;-81
2022/07/25 08:13:57;;;;;;;;;;;;;;;18.49;100.00;98034.22;5072711;28;19928;-80
2022/07/25 08:16:24;;;;;;;;;;;;;;;18.40;100.00;98045.72;5072840;28;19970;-81
2022/07/25 08:18:51;;;;;;;;;;;;;;;18.16;100.00;98045.16;5073968;28;19924;-81
2022/07/25 08:21:19;;;;;;;;;;;;;;;18.17;100.00;98034.66;5072565;28;19928;-81
2022/07/25 08:23:47;;;;;;;;;;;;;;;18.39;100.00;98049.78;5072324;28;20356;-81
2022/07/25 08:26:14;;;;;;;;;;;;;;;18.36;100.00;98056.44;5072247;28;19924;-80
2022/07/25 08:28:41;;;;;;;;;;;;;;;18.77;100.00;98057.84;5072489;28;19966;-81
2022/07/25 08:31:09;;;;;;;;;;;;;;;18.46;100.00;98065.56;5064562;28;19924;-84
2022/07/25 08:33:36;;;;;;;;;;;;;;;18.67;100.00;98053.66;5053571;28;19932;-84
2022/07/25 08:36:09;;;;;;;;;;;;;;;18.87;100.00;98062.03;5090347;28;19930;-85
2022/07/25 08:38:36;;;;;;;;;;;;;;;19.15;100.00;98059.41;5055380;28;19924;-85
2022/07/25 08:41:04;;;;;;;;;;;;;;;19.13;100.00;98068.41;5091127;28;19928;-84
2022/07/25 08:43:34;;;;;;;;;;;;;;;19.25;100.00;98066.44;5093300;28;20014;-82
2022/07/25 08:46:04;;;;;;;;;;;;;;;19.27;100.00;98069.53;5075987;28;19925;-85
2022/07/25 08:48:31;;;;;;;;;;;;;;;19.15;100.00;98068.69;5074228;28;20024;-83
2022/07/25 08:50:58;;;;;;;;;;;;;;;19.16;100.00;98064.56;5072603;28;19928;-82
2022/07/25 08:53:26;;;;;;;;;;;;;;;19.34;100.00;98067.00;5073024;28;20437;-87
2022/07/25 08:56:05;;;;;;;;;;;;;;;19.58;100.00;98087.22;5062602;28;19924;-83
2022/07/25 08:58:36;;;;;;;;;;;;;;;19.74;100.00;98088.59;5092540;28;19938;-84
2022/07/25 09:01:03;;;;;;;;;;;;;;;19.81;100.00;98078.84;5092654;28;20028;-83
2022/07/25 09:03:35;;;;;;;;;;;;;;;19.65;100.00;98091.66;5075448;28;19937;-82
2022/07/25 09:06:12;;;;;;;;;;;;;;;19.25;100.00;98089.84;5075377;28;19924;-84
2022/07/25 09:08:48;;;;;;;;;;;;;;;19.56;100.00;98089.81;5093259;28;19934;-85
2022/07/25 09:11:24;;;;;;;;;;;;;;;19.54;100.00;98089.53;5075458;28;19930;-88
2022/07/25 09:13:59;;;;;;;;;;;;;;;19.72;100.00;98090.41;5073934;28;19960;-84
2022/07/25 09:16:30;;;;;;;;;;;;;;;19.47;100.00;98084.34;5055855;28;20002;-83
2022/07/25 09:19:05;;;;;;;;;;;;;;;19.96;100.00;98100.06;5073411;28;20562;-84
2022/07/25 09:21:33;;;;;;;;;;;;;;;19.98;100.00;98102.38;5038542;28;19935;-85
2022/07/25 09:24:09;;;;;;;;;;;;;;;19.70;100.00;98097.34;5072555;28;19936;-86
2022/07/25 09:26:43;;;;;;;;;;;;;;;19.99;100.00;98103.91;5071249;28;19958;-82
2022/07/25 09:29:22;;;;;;;;;;;;;;;19.59;100.00;98117.13;5070445;28;20434;-83
2022/07/25 09:31:51;;;;;;;;;;;;;;;19.98;100.00;98130.72;5087620;28;19924;-84
2022/07/25 09:34:37;;;;;;;;;;;;;;;19.59;100.00;98122.81;5071817;28;19924;-84
2022/07/25 09:37:11;;;;;;;;;;;;;;;19.61;100.00;98137.22;5072425;28;19924;-81
2022/07/25 09:39:42;;;;;;;;;;;;;;;19.40;100.00;98143.53;5073057;28;20015;-82
2022/07/25 09:42:25;;;;;;;;;;;;;;;19.20;100.00;98150.06;5073223;28;20620;-83
2022/07/25 09:45:12;;;;;;;;;;;;;;;19.00;100.00;98146.53;5071405;28;20015;-84
2022/07/25 09:47:56;;;;;;;;;;;;;;;18.89;100.00;98152.09;5072582;28;20013;-84
2022/07/25 09:50:24;;;;;;;;;;;;;;;18.68;100.00;98162.72;5071302;28;19963;-82
2022/07/25 09:52:52;;;;;;;;;;;;;;;18.52;100.00;98165.38;5072279;28;20414;-82
2022/07/25 09:55:22;;;;;;;;;;;;;;;18.65;100.00;98168.59;5072270;28;19931;-81
2022/07/25 09:57:51;;;;;;;;;;;;;;;18.41;100.00;98166.03;5086262;28;19933;-83
2022/07/25 10:00:19;;;;;;;;;;;;;;;18.46;100.00;98164.53;5079163;28;20428;-82
2022/07/25 10:03:00;;;;;;;;;;;;;;;18.57;100.00;98173.16;5087071;28;19951;-84
2022/07/25 10:05:28;;;;;;;;;;;;;;;18.89;100.00;98167.03;5073848;28;19932;-80
2022/07/25 10:07:55;;;;;;;;;;;;;;;19.21;100.00;98168.59;5074501;28;19931;-84
2022/07/25 10:10:26;;;;;;;;;;;;;;;19.01;100.00;98185.66;5090919;28;19931;-83
2022/07/25 10:13:00;;;;;;;;;;;;;;;19.02;100.00;98178.72;5091108;28;19924;-84
2022/07/25 10:15:53;;;;;;;;;;;;;;;18.86;100.00;98179.34;5073967;28;19930;-83
2022/07/25 10:18:22;;;;;;;;;;;;;;;19.23;100.00;98188.69;5072938;28;20398;-84
2022/07/25 10:20:51;;;;;;;;;;;;;;;19.11;100.00;98184.22;5086933;28;19967;-83
2022/07/25 10:23:22;;;;;;;;;;;;;;;19.10;100.00;98182.66;5070111;28;19924;-86
2022/07/25 10:26:00;;;;;;;;;;;;;;;19.54;100.00;98199.25;5083530;28;19928;-82
2022/07/25 10:28:42;;;;;;;;;;;;;;;19.66;100.00;98204.50;5069602;28;19973;-82
2022/07/25 10:31:29;;;;;;;;;;;;;;;19.75;100.00;98208.41;5056373;28;20031;-84
2022/07/25 10:33:58;;;;;;;;;;;;;;;19.71;100.00;98208.66;5063164;28;19925;-83
2022/07/25 10:36:31;;;;;;;;;;;;;;;19.94;100.00;98193.31;5056825;28;20018;-83
2022/07/25 10:38:59;;;;;;;;;;;;;;;19.93;100.00;98202.34;5057039;28;19925;-85
2022/07/25 10:41:28;;;;;;;;;;;;;;;19.81;100.00;98209.22;5073159;28;20387;-85
2022/07/25 10:43:58;;;;;;;;;;;;;;;19.84;100.00;98233.72;5074557;28;19924;-84
2022/07/25 10:46:26;;;;;;;;;;;;;;;19.42;100.00;98214.59;5073277;28;20023;-84
2022/07/25 10:49:04;;;;;;;;;;;;;;;19.21;100.00;98216.75;5073160;28;20019;-79
2022/07/25 10:51:34;;;;;;;;;;;;;;;19.11;100.00;98218.22;5074346;28;19924;-79
2022/07/25 10:54:15;;;;;;;;;;;;;;;18.89;100.00;98231.34;5073028;28;19925;-83
2022/07/25 10:56:53;;;;;;;;;;;;;;;18.83;100.00;98222.81;5073068;28;19924;-83
2022/07/25 10:59:27;;;;;;;;;;;;;;;19.16;100.00;98231.63;5073198;28;19929;-83
2022/07/25 11:01:54;;;;;;;;;;;;;;;19.57;100.00;98233.03;5073627;28;19931;-82
2022/07/25 11:04:22;;;;;;;;;;;;;;;20.05;100.00;98238.75;5038785;28;20386;-82
2022/07/25 11:06:49;;;;;;;;;;;;;;;19.77;100.00;98240.63;5074181;28;19948;-82
2022/07/25 11:09:19;;;;;;;;;;;;;;;19.87;100.00;98249.72;5074487;28;20284;-81
2022/07/25 11:11:53;;;;;;;;;;;;;;;19.92;100.00;98240.50;5073242;28;19970;-81
2022/07/25 11:14:22;;;;;;;;;;;;;;;19.60;100.00;98243.34;5073185;28;20009;-81
2022/07/25 11:16:51;;;;;;;;;;;;;;;20.09;100.00;98249.84;5073350;28;19924;-81
2022/07/25 11:19:27;;;;;;;;;;;;;;;19.76;100.00;98241.13;5074353;28;19924;-81
2022/07/25 11:21:55;;;;;;;;;;;;;;;20.15;100.00;98242.97;5056702;28;19924;-81
2022/07/25 11:24:36;;;;;;;;;;;;;;;20.38;100.00;98243.84;5072885;28;19924;-81
2022/07/25 11:27:03;;;;;;;;;;;;;;;20.40;100.00;98238.44;5073379;28;20363;-81
2022/07/25 11:29:33;;;;;;;;;;;;;;;20.39;100.00;98239.72;5074115;28;19924;-81
2022/07/25 11:32:09;;;;;;;;;;;;;;;20.38;100.00;98243.84;5074458;28;19951;-81
2022/07/25 11:34:40;;;;;;;;;;;;;;;20.63;100.00;98251.44;5073020;28;19924;-81
2022/07/25 11:37:08;;;;;;;;;;;;;;;20.70;100.00;98263.06;5073180;28;19924;-81
2022/07/25 11:39:37;;;;;;;;;;;;;;;20.00;100.00;98252.88;5073829;28;19998;-81
2022/07/25 11:42:08;;;;;;;;;;;;;;;20.24;100.00;98250.47;5073079;28;19924;-81
2022/07/25 11:44:40;;;;;;;;;;;;;;;20.27;100.00;98252.28;5071957;28;19924;-80
2022/07/25 11:47:29;;;;;;;;;;;;;;;20.27;100.00;98263.63;5072707;28;20328;-80
2022/07/25 11:50:01;;;;;;;;;;;;;;;20.43;100.00;98268.63;5069921;28;20044;-81
2022/07/25 11:52:29;;;;;;;;;;;;;;;20.28;100.00;98262.38;5068816;28;20371;-83
2022/07/25 11:55:01;;;;;;;;;;;;;;;20.30;100.00;98282.47;5069096;28;19924;-84
2022/07/25 11:57:29;;;;;;;;;;;;;;;20.06;100.00;98284.88;5052976;28;19924;-82
2022/07/25 11:59:59;;;;;;;;;;;;;;;19.64;100.00;98289.22;5102982;28;19928;-83
2022/07/25 12:02:36;;;;;;;;;;;;;;;19.12;100.00;98290.53;5086050;28;19925;-83
2022/07/25 12:05:05;;;;;;;;;;;;;;;18.65;100.00;98305.19;5070341;28;19931;-87
2022/07/25 12:07:41;;;;;;;;;;;;;;;18.41;100.00;98321.59;5069796;28;19925;-87
2022/07/25 12:10:12;;;;;;;;;;;;;;;18.15;100.00;98320.66;5086148;28;20352;-87
2022/07/25 12:12:40;;;;;;;;;;;;;;;18.22;100.00;98333.63;5053084;28;19986;-87
2022/07/25 12:15:09;;;;;;;;;;;;;;;18.51;100.00;98323.00;5036236;28;19925;-87
2022/07/25 12:17:37;;;;;;;;;;;;;;;18.24;100.00;98337.50;5057507;28;19924;-88
2022/07/25 12:20:10;;;;;;;;;;;;;;;18.33;100.00;98340.19;5057239;28;19925;-88
2022/07/25 12:22:53;;;;;;;;;;;;;;;18.11;100.00;98348.38;5077304;28;20006;-86
2022/07/25 12:25:25;;;;;;;;;;;;;;;18.10;100.00;98343.97;5084883;28;19932;-83
2022/07/25 12:28:05;;;;;;;;;;;;;;;18.55;100.00;98340.56;5074050;28;19924;-83
2022/07/25 12:30:32;;;;;;;;;;;;;;;18.99;100.00;98329.75;5072443;28;19924;-84
2022/07/25 12:33:01;;;;;;;;;;;;;;;19.09;100.00;98328.34;5077577;28;20029;-85
2022/07/25 12:35:42;;;;;;;;;;;;;;;18.91;100.00;98323.00;5078041;28;20589;-83
2022/07/25 12:38:09;;;;;;;;;;;;;;;18.81;100.00;98330.06;5095028;28;20010;-83
2022/07/25 12:40:37;;;;;;;;;;;;;;;18.40;100.00;98339.84;5095613;28;19984;-83
2022/07/25 12:43:04;;;;;;;;;;;;;;;17.99;100.00;98343.81;5095429;28;20013;-83
2022/07/25 12:45:31;;;;;;;;;;;;;;;18.41;100.00;98335.72;5094964;28;19986;-83
2022/07/25 12:47:58;;;;;;;;;;;;;;;18.65;100.00;98349.66;5095781;28;19924;-86
2022/07/25 12:50:25;;;;;;;;;;;;;;;19.30;100.00;98349.69;5095740;28;19924;-84